Briceville, Tennessee
Current Conditions -  °F | °C
As of 6:53 PM on Saturday 22 Nov 2014 (Local Time) from KOQT Reporting Station
Clear Clear  
Wind Chill: 48°   Ceiling: Unl
Heat Index: 48°   Visibility: 10mi
Dew Point: 33°   Wind: 0mph
Humidity: 56%   Direction: NA
Pressure: 30.23"   Gusts: NA
Location:  36.18°N, 84.18°W
Report Text: KOQT 222353Z AUTO 00000KT 10SM CLR 09/01 A3023 RMK AO2 SLP249 T00890006 10172 20089 56006
Loading
Personal Weather Stations






























Interactive Weather Map New forecast layout! Learn more

10-Day Weather Forecast

Advertisements
Track Severe Weather on mobile